Time;durP1;ratioP1;P1;durP2;ratioP2;P2;SDS_P1;SDS_P2;PMS_P1;PMS_P2;Temp;Humidity;BMP_temperature;BMP_pressure;BME280_temperature;BME280_humidity;BME280_pressure;Samples;Min_cycle;Max_cycle;Signal;HPM_P1;HPM_P2
2022/10/20 00:03:45;;;;;;;15.60;12.20;;;;;;;8.99;100.00;101382.69;2887061;80;21299;-92
2022/10/20 00:07:47;;;;;;;16.93;13.90;;;;;;;8.71;100.00;101371.86;2863308;79;21094;-94
2022/10/20 00:11:48;;;;;;;20.60;15.13;;;;;;;8.49;100.00;101370.84;2862472;81;21058;-93
2022/10/20 00:15:51;;;;;;;16.37;14.07;;;;;;;8.23;100.00;101374.92;2873701;81;21024;-90
2022/10/20 00:19:52;;;;;;;17.98;15.05;;;;;;;8.19;100.00;101368.95;2813348;82;21083;-93
2022/10/20 00:23:53;;;;;;;15.90;11.20;;;;;;;8.23;100.00;101359.89;2809124;82;21109;-93
2022/10/20 00:27:54;;;;;;;13.62;10.65;;;;;;;8.26;100.00;101361.53;2837801;82;21048;-94
2022/10/20 00:31:56;;;;;;;16.75;12.23;;;;;;;8.17;100.00;101356.26;2793984;81;21492;-93
2022/10/20 00:36:02;;;;;;;13.58;10.95;;;;;;;8.10;100.00;101351.76;2835898;83;21533;-94
2022/10/20 00:40:04;;;;;;;13.40;10.85;;;;;;;7.91;100.00;101352.36;2787358;83;21054;-94
2022/10/20 00:44:49;;;;;;;12.80;9.10;;;;;;;7.64;100.00;101356.84;2818034;82;21095;-94
2022/10/20 00:48:59;;;;;;;17.55;9.98;;;;;;;7.61;100.00;101347.74;2717378;85;21196;-94
2022/10/20 00:53:01;;;;;;;19.48;12.95;;;;;;;7.60;100.00;101350.88;2719362;85;21570;-93
2022/10/20 00:57:04;;;;;;;28.92;10.60;;;;;;;7.49;100.00;101350.56;2752326;84;21585;-92
2022/10/20 01:01:05;;;;;;;44.00;12.70;;;;;;;7.56;100.00;101343.55;2764490;84;21087;-93
2022/10/20 01:05:07;;;;;;;36.50;12.80;;;;;;;7.59;100.00;101345.19;2748570;83;21069;-94
2022/10/20 01:09:09;;;;;;;49.93;16.87;;;;;;;7.60;100.00;101339.41;2728144;83;21044;-92
2022/10/20 01:13:24;;;;;;;15.28;8.40;;;;;;;7.44;98.37;101344.17;2680152;86;21072;-94
2022/10/20 01:17:37;;;;;;;15.97;9.73;;;;;;;7.37;99.87;101338.83;2704361;84;21119;-94
2022/10/20 01:22:08;;;;;;;29.05;11.22;;;;;;;7.35;99.58;101340.70;2863883;81;21079;-95
2022/10/20 01:26:57;;;;;;;17.15;9.15;;;;;;;7.32;99.35;101344.34;2883689;80;21146;-89
2022/10/20 01:31:01;;;;;;;23.45;10.10;;;;;;;7.30;98.55;101335.63;2744636;84;21890;-93
2022/10/20 01:35:20;;;;;;;16.32;10.30;;;;;;;7.21;97.01;101338.28;2697811;86;21077;-92
2022/10/20 01:39:41;;;;;;;16.37;10.60;;;;;;;7.13;96.91;101344.44;2709486;85;21106;-94
2022/10/20 01:43:45;;;;;;;15.23;9.10;;;;;;;7.10;96.57;101347.25;2681250;87;21063;-92
2022/10/20 01:47:49;;;;;;;14.55;7.78;;;;;;;7.02;96.46;101339.69;2744761;84;21036;-93
2022/10/20 01:51:50;;;;;;;12.88;8.33;;;;;;;6.97;96.64;101341.23;2750097;84;21068;-95
2022/10/20 01:55:55;;;;;;;14.68;7.90;;;;;;;6.93;96.92;101339.68;2706794;85;21071;-94
2022/10/20 02:00:13;;;;;;;17.55;8.63;;;;;;;6.92;97.20;101343.70;2753400;84;21595;-95
2022/10/20 02:04:16;;;;;;;27.02;9.58;;;;;;;6.89;97.99;101338.13;2818735;81;21028;-94
2022/10/20 02:08:37;;;;;;;14.70;7.58;;;;;;;6.74;96.98;101340.20;2869384;81;21099;-94
2022/10/20 02:12:43;;;;;;;50.83;8.60;;;;;;;6.68;97.60;101339.58;2869310;81;20988;-93
2022/10/20 02:16:51;;;;;;;16.37;7.12;;;;;;;6.61;97.88;101340.78;2816724;82;21044;-94
2022/10/20 02:20:56;;;;;;;18.30;7.00;;;;;;;6.62;98.90;101335.05;2782554;83;21586;-94
2022/10/20 02:24:59;;;;;;;44.45;7.50;;;;;;;6.50;99.32;101327.24;2879488;80;21066;-94
2022/10/20 02:29:05;;;;;;;13.43;8.38;;;;;;;6.32;99.98;101329.83;2843209;80;21118;-94
2022/10/20 02:33:07;;;;;;;9.88;7.25;;;;;;;6.26;100.00;101332.73;2860273;80;21033;-94
2022/10/20 02:37:09;;;;;;;12.00;6.85;;;;;;;6.34;100.00;101334.58;2884131;79;21040;-95
2022/10/20 02:41:11;;;;;;;14.87;7.25;;;;;;;6.11;100.00;101336.52;2872136;80;21089;-94
2022/10/20 02:45:12;;;;;;;9.55;7.05;;;;;;;5.84;100.00;101344.72;2849776;80;21015;-95
2022/10/20 02:49:14;;;;;;;10.03;7.00;;;;;;;5.70;100.00;101340.06;2855258;81;21043;-93
2022/10/20 02:53:15;;;;;;;13.85;7.92;;;;;;;5.69;100.00;101340.98;2870431;80;21065;-95
2022/10/20 02:57:16;;;;;;;13.65;8.15;;;;;;;5.79;100.00;101333.52;2844293;80;21044;-96
2022/10/20 03:01:17;;;;;;;11.33;8.10;;;;;;;5.81;100.00;101334.30;2865708;80;21067;-95
2022/10/20 03:05:18;;;;;;;14.73;7.72;;;;;;;5.86;100.00;101334.94;2870741;80;21133;-92
2022/10/20 03:09:20;;;;;;;7.95;6.87;;;;;;;5.86;100.00;101329.66;2808162;82;21145;-91
2022/10/20 03:13:21;;;;;;;12.30;7.90;;;;;;;5.69;100.00;101334.84;2784911;84;20976;-91
2022/10/20 03:17:22;;;;;;;24.75;9.60;;;;;;;5.54;100.00;101329.34;2775201;84;21105;-90
2022/10/20 03:21:23;;;;;;;7.58;6.53;;;;;;;5.57;100.00;101338.44;2785531;82;21052;-91
2022/10/20 03:25:24;;;;;;;24.77;8.20;;;;;;;5.61;100.00;101334.34;2798666;83;21015;-90
2022/10/20 03:29:26;;;;;;;18.65;7.22;;;;;;;5.67;100.00;101334.92;2810744;82;21053;-91
2022/10/20 03:33:27;;;;;;;21.82;9.28;;;;;;;5.65;100.00;101332.82;2820002;82;21074;-91
2022/10/20 03:37:28;;;;;;;22.85;7.53;;;;;;;5.63;100.00;101333.80;2806545;83;21553;-90
2022/10/20 03:41:29;;;;;;;16.37;7.75;;;;;;;5.60;100.00;101331.30;2791397;83;21713;-91
2022/10/20 03:45:31;;;;;;;13.40;7.65;;;;;;;5.57;100.00;101335.80;2749243;83;21031;-91
2022/10/20 03:49:32;;;;;;;7.75;6.25;;;;;;;5.57;100.00;101327.88;2845281;82;21056;-91
2022/10/20 03:53:34;;;;;;;14.28;8.58;;;;;;;5.57;100.00;101325.23;2802442;82;21066;-90
2022/10/20 03:57:35;;;;;;;11.95;8.30;;;;;;;5.57;100.00;101326.55;2825565;81;21055;-91
2022/10/20 04:01:36;;;;;;;28.12;12.80;;;;;;;5.55;100.00;101320.49;2855742;80;21557;-92
2022/10/20 04:05:38;;;;;;;27.42;13.93;;;;;;;5.50;100.00;101317.20;2869550;81;21518;-93
2022/10/20 04:09:39;;;;;;;32.48;21.10;;;;;;;5.43;100.00;101314.42;2892100;79;21083;-92
2022/10/20 04:13:40;;;;;;;29.67;16.35;;;;;;;5.36;100.00;101317.78;2865100;80;21067;-94
2022/10/20 04:17:41;;;;;;;19.30;14.43;;;;;;;5.33;100.00;101311.80;2808349;81;21068;-94
2022/10/20 04:21:43;;;;;;;25.15;14.33;;;;;;;5.28;100.00;101308.88;2856348;82;21044;-92
2022/10/20 04:25:46;;;;;;;24.77;13.70;;;;;;;5.33;100.00;101305.20;2856891;81;21077;-93
2022/10/20 04:29:47;;;;;;;22.90;16.02;;;;;;;5.32;100.00;101293.78;2842120;80;21050;-94
2022/10/20 04:33:48;;;;;;;23.98;12.05;;;;;;;5.36;100.00;101294.03;2799282;82;21026;-94
2022/10/20 04:37:49;;;;;;;25.50;14.00;;;;;;;5.33;100.00;101286.26;2855917;81;21130;-91
2022/10/20 04:41:51;;;;;;;27.85;13.25;;;;;;;5.32;100.00;101285.03;2881758;80;21040;-93
2022/10/20 04:45:57;;;;;;;17.32;13.38;;;;;;;5.29;100.00;101282.05;2863417;82;21033;-93
2022/10/20 04:49:57;;;;;;;15.53;11.75;;;;;;;5.28;100.00;101277.22;2811499;82;21083;-94
2022/10/20 04:53:59;;;;;;;16.07;11.28;;;;;;;5.28;100.00;101263.19;2825220;82;21139;-95
2022/10/20 04:58:00;;;;;;;15.98;11.90;;;;;;;5.35;100.00;101266.42;2840106;81;21038;-95
2022/10/20 05:02:01;;;;;;;16.50;13.50;;;;;;;5.37;100.00;101259.29;2830570;81;21011;-95
2022/10/20 05:06:15;;;;;;;21.97;12.98;;;;;;;5.39;100.00;101253.48;2818652;82;21096;-93
2022/10/20 05:10:18;;;;;;;20.35;13.50;;;;;;;5.39;100.00;101242.92;2808382;82;21118;-89
2022/10/20 05:14:19;;;;;;;15.68;12.43;;;;;;;5.46;100.00;101248.31;2841736;81;21178;-95
2022/10/20 05:18:21;;;;;;;20.82;14.58;;;;;;;5.28;100.00;101248.68;2819950;81;21119;-95
2022/10/20 05:22:22;;;;;;;28.17;17.60;;;;;;;5.09;100.00;101245.97;2843883;81;21133;-94
2022/10/20 05:26:25;;;;;;;20.52;15.05;;;;;;;5.07;100.00;101241.23;2753318;82;21150;-94
2022/10/20 05:30:26;;;;;;;11.20;9.28;;;;;;;4.98;100.00;101248.62;2855792;81;21158;-94
2022/10/20 05:34:27;;;;;;;28.75;13.10;;;;;;;4.92;100.00;101251.54;2818708;83;21072;-93
2022/10/20 05:38:28;;;;;;;17.92;12.35;;;;;;;4.98;100.00;101260.94;2882754;80;21110;-93
2022/10/20 05:42:29;;;;;;;17.87;10.90;;;;;;;5.02;100.00;101265.19;2884883;79;21167;-91
2022/10/20 05:46:33;;;;;;;49.05;14.05;;;;;;;5.11;100.00;101262.59;2886124;79;21549;-95
2022/10/20 05:50:34;;;;;;;35.00;16.02;;;;;;;5.31;100.00;101256.93;2881095;79;21531;-95
2022/10/20 05:54:36;;;;;;;24.77;15.03;;;;;;;5.47;100.00;101260.58;2823169;81;21102;-91
2022/10/20 05:58:37;;;;;;;61.28;32.50;;;;;;;5.57;100.00;101261.89;2878766;80;21063;-94
2022/10/20 06:02:38;;;;;;;37.80;23.75;;;;;;;5.62;100.00;101264.78;2867980;80;21357;-95
2022/10/20 06:06:40;;;;;;;22.52;16.50;;;;;;;5.66;100.00;101282.18;2887992;79;21055;-95
2022/10/20 06:10:41;;;;;;;27.17;17.05;;;;;;;5.53;100.00;101291.99;2803871;80;21169;-93
2022/10/20 06:14:42;;;;;;;29.75;16.57;;;;;;;5.57;100.00;101292.24;2888245;80;21446;-96
2022/10/20 06:18:43;;;;;;;34.30;17.92;;;;;;;5.60;100.00;101287.75;2863307;80;21124;-94
2022/10/20 06:22:44;;;;;;;28.95;16.77;;;;;;;5.60;100.00;101294.34;2808002;83;21130;-94
2022/10/20 06:26:46;;;;;;;25.27;17.10;;;;;;;5.69;100.00;101300.07;2839037;82;21044;-95
2022/10/20 06:30:47;;;;;;;24.87;16.02;;;;;;;5.84;100.00;101298.98;2822061;81;21052;-93
2022/10/20 06:34:48;;;;;;;21.40;14.47;;;;;;;6.03;100.00;101293.73;2799065;82;21032;-93
2022/10/20 06:38:55;;;;;;;19.40;12.80;;;;;;;5.97;100.00;101288.23;2751725;82;21040;-94
2022/10/20 06:42:57;;;;;;;26.45;17.45;;;;;;;5.81;100.00;101287.25;2823616;82;21560;-94
2022/10/20 06:46:58;;;;;;;22.90;16.25;;;;;;;5.83;100.00;101291.52;2815406;82;21071;-93
2022/10/20 06:51:06;;;;;;;19.55;16.40;;;;;;;5.82;100.00;101291.60;2805311;82;21061;-94
2022/10/20 06:55:08;;;;;;;16.57;12.65;;;;;;;6.03;100.00;101281.84;2818070;82;21034;-92
2022/10/20 06:59:09;;;;;;;24.02;16.82;;;;;;;6.04;100.00;101282.72;2808953;83;21215;-92
2022/10/20 07:03:10;;;;;;;51.63;16.80;;;;;;;6.23;100.00;101289.30;2832063;82;21036;-94
2022/10/20 07:07:11;;;;;;;28.02;19.02;;;;;;;6.21;100.00;101289.83;2831606;81;21039;-94
2022/10/20 07:11:16;;;;;;;25.00;17.52;;;;;;;6.18;100.00;101296.59;2803196;83;21101;-94
2022/10/20 07:15:18;;;;;;;27.40;17.12;;;;;;;6.18;100.00;101292.14;2787828;83;21028;-94
2022/10/20 07:19:19;;;;;;;24.90;17.15;;;;;;;6.09;100.00;101287.31;2808875;82;21012;-91
2022/10/20 07:23:20;;;;;;;29.67;22.40;;;;;;;6.19;100.00;101293.89;2789680;82;21064;-94
2022/10/20 07:27:21;;;;;;;36.08;22.20;;;;;;;6.35;100.00;101291.36;2761395;84;21036;-93
2022/10/20 07:31:28;;;;;;;29.50;20.95;;;;;;;6.53;100.00;101287.44;2873598;80;21115;-94
2022/10/20 07:35:29;;;;;;;;;;;;;;;6.68;100.00;101282.72;2883837;80;21015;-93
2022/10/20 07:39:30;;;;;;;29.27;21.07;;;;;;;6.82;100.00;101276.73;2872449;80;20090;-93
2022/10/20 07:43:31;;;;;;;26.12;17.60;;;;;;;6.89;100.00;101273.33;2847972;82;21573;-93
2022/10/20 07:47:32;;;;;;;31.25;22.22;;;;;;;6.88;100.00;101274.26;2813475;79;21034;-93
2022/10/20 07:51:34;;;;;;;29.05;17.23;;;;;;;6.88;100.00;101275.58;2861823;80;21432;-93
2022/10/20 07:55:35;;;;;;;27.42;18.52;;;;;;;6.80;100.00;101277.73;2888984;79;22351;-94
2022/10/20 07:59:36;;;;;;;35.95;22.32;;;;;;;6.89;100.00;101271.13;2862706;80;21043;-93
2022/10/20 08:03:37;;;;;;;27.58;19.55;;;;;;;7.10;100.00;101281.09;2885281;79;21076;-95
2022/10/20 08:07:39;;;;;;;29.60;22.95;;;;;;;7.28;100.00;101271.34;2860991;81;21018;-93
2022/10/20 08:11:40;;;;;;;28.95;20.20;;;;;;;7.50;100.00;101264.45;2759193;81;21092;-93
2022/10/20 08:15:41;;;;;;;33.75;22.62;;;;;;;7.55;100.00;101266.83;2884376;80;21032;-93
2022/10/20 08:19:43;;;;;;;30.55;19.15;;;;;;;7.70;100.00;101251.93;2901239;79;21197;-92
2022/10/20 08:23:46;;;;;;;28.50;20.75;;;;;;;7.83;100.00;101253.44;2878835;80;21047;-92
2022/10/20 08:27:47;;;;;;;30.48;22.42;;;;;;;8.09;100.00;101250.67;2859157;81;21042;-93
2022/10/20 08:31:49;;;;;;;35.45;21.52;;;;;;;8.10;100.00;101251.05;2878055;81;21093;-93
2022/10/20 08:35:50;;;;;;;33.58;22.20;;;;;;;8.33;100.00;101249.34;2799243;81;21039;-92
2022/10/20 08:39:51;;;;;;;31.87;22.45;;;;;;;8.41;100.00;101250.63;2854545;82;21067;-92
2022/10/20 08:43:55;;;;;;;29.98;22.02;;;;;;;8.56;100.00;101256.89;2857290;79;21046;-93
2022/10/20 08:47:58;;;;;;;27.73;21.90;;;;;;;8.53;100.00;101258.86;2875213;79;21585;-92
2022/10/20 08:52:00;;;;;;;33.95;20.80;;;;;;;8.70;100.00;101249.45;2881572;80;21119;-93
2022/10/20 08:56:01;;;;;;;32.15;22.17;;;;;;;8.87;100.00;101254.23;2841962;82;21051;-93
2022/10/20 09:00:21;;;;;;;42.73;27.60;;;;;;;8.95;100.00;101252.46;2893139;79;21098;-93
2022/10/20 09:04:33;;;;;;;31.10;23.87;;;;;;;9.16;100.00;101246.80;2887943;80;21103;-90
2022/10/20 09:08:36;;;;;;;39.20;24.90;;;;;;;9.34;100.00;101238.17;2868665;79;21058;-92
2022/10/20 09:12:41;;;;;;;41.00;26.80;;;;;;;9.38;100.00;101233.05;2857638;81;21443;-92
2022/10/20 09:16:45;;;;;;;37.40;23.50;;;;;;;9.55;100.00;101233.35;2872499;79;21095;-93
2022/10/20 09:20:58;;;;;;;35.35;27.58;;;;;;;9.75;100.00;101224.11;2852301;81;21575;-92
2022/10/20 09:24:59;;;;;;;35.13;22.35;;;;;;;9.97;100.00;101231.57;2854009;80;21060;-92
2022/10/20 09:29:11;;;;;;;28.75;23.35;;;;;;;10.07;100.00;101227.84;2857993;81;21102;-92
2022/10/20 09:33:31;;;;;;;32.63;21.82;;;;;;;10.24;100.00;101223.23;2901215;79;21067;-92
2022/10/20 09:37:35;;;;;;;30.20;19.73;;;;;;;10.51;100.00;101214.41;2865157;81;21614;-92
2022/10/20 09:41:37;;;;;;;28.42;22.20;;;;;;;10.57;100.00;101213.98;2852443;81;21097;-91
2022/10/20 09:45:50;;;;;;;23.42;15.85;;;;;;;10.82;100.00;101220.33;2858379;80;21115;-92
2022/10/20 09:49:58;;;;;;;26.70;19.62;;;;;;;10.78;100.00;101216.16;2856223;81;21066;-93
2022/10/20 09:54:06;;;;;;;26.10;17.20;;;;;;;10.92;100.00;101212.08;2877998;80;21125;-93
2022/10/20 09:58:22;;;;;;;27.55;20.17;;;;;;;11.07;100.00;101205.33;2858947;81;21077;-93
2022/10/20 10:02:30;;;;;;;19.60;14.98;;;;;;;11.25;100.00;101192.06;2798207;81;21048;-92
2022/10/20 10:06:41;;;;;;;16.50;13.93;;;;;;;11.29;100.00;101186.88;2822761;81;21046;-93
2022/10/20 10:10:48;;;;;;;21.95;17.23;;;;;;;11.32;98.89;101180.97;2879037;79;21181;-92
2022/10/20 10:14:53;;;;;;;20.70;14.05;;;;;;;11.40;100.00;101175.96;2860618;80;21075;-93
2022/10/20 10:19:01;;;;;;;18.37;13.20;;;;;;;11.56;100.00;101168.55;2861720;82;21046;-93
2022/10/20 10:23:23;;;;;;;18.02;13.53;;;;;;;11.77;98.60;101169.28;2906314;80;21642;-92
2022/10/20 10:27:31;;;;;;;16.90;10.88;;;;;;;11.90;98.22;101157.27;2867855;80;21033;-93
2022/10/20 10:31:32;;;;;;;20.68;10.43;;;;;;;12.05;94.54;101155.77;2897930;80;21006;-93
2022/10/20 10:35:40;;;;;;;10.32;8.60;;;;;;;12.20;94.08;101151.96;2862075;80;21099;-93
2022/10/20 10:45:06;;;;;;;6.65;5.58;;;;;;;12.40;87.81;101130.45;3031359;77;23133;-91
2022/10/20 10:49:41;;;;;;;7.25;6.28;;;;;;;12.43;87.65;101140.89;3039454;77;21049;-91
2022/10/20 10:53:51;;;;;;;15.03;6.85;;;;;;;12.61;85.78;101119.57;2984779;77;20955;-89
2022/10/20 10:58:41;;;;;;;12.45;7.80;;;;;;;12.62;85.85;101126.14;2989553;78;21042;-88
2022/10/20 11:02:59;;;;;;;7.50;6.20;;;;;;;12.60;83.99;101112.06;2989208;77;21034;-91
2022/10/20 11:07:35;;;;;;;7.22;5.72;;;;;;;12.62;81.28;101108.79;2977006;78;21089;-90
2022/10/20 11:12:02;;;;;;;5.28;4.78;;;;;;;12.56;81.75;101102.57;3045942;77;21018;-90
2022/10/20 11:16:25;;;;;;;;;;;;;;;12.59;81.36;101093.02;3009190;77;21015;-91
2022/10/20 11:20:37;;;;;;;7.47;5.10;;;;;;;12.48;81.29;101075.64;3000061;77;20483;-90
2022/10/20 11:25:14;;;;;;;12.75;7.33;;;;;;;12.44;82.65;101073.69;2982774;78;21053;-90
2022/10/20 11:29:32;;;;;;;8.45;5.83;;;;;;;12.62;83.29;101070.09;2992548;78;21034;-90
2022/10/20 11:33:46;;;;;;;13.93;6.58;;;;;;;12.71;83.01;101055.17;2982934;78;21549;-91
2022/10/20 11:38:08;;;;;;;6.83;4.65;;;;;;;12.77;82.27;101053.34;2985332;78;21014;-93
2022/10/20 11:42:36;;;;;;;4.87;4.25;;;;;;;12.82;79.31;101039.64;3020721;77;20987;-93
2022/10/20 11:46:46;;;;;;;8.55;4.60;;;;;;;12.84;78.19;101039.03;2877792;80;21034;-92
2022/10/20 11:50:58;;;;;;;9.18;4.78;;;;;;;12.75;77.45;101025.06;2927793;80;21010;-88
2022/10/20 11:55:14;;;;;;;6.45;4.17;;;;;;;12.84;76.65;101017.67;2862315;80;21054;-92
2022/10/20 11:59:47;;;;;;;6.97;4.37;;;;;;;12.93;74.02;101026.26;2928371;79;21614;-92
2022/10/20 12:04:28;;;;;;;8.45;5.03;;;;;;;13.06;74.49;101014.60;2939785;79;21170;-91
2022/10/20 12:08:49;;;;;;;6.33;4.20;;;;;;;13.18;73.58;101011.41;2873404;80;21087;-92
2022/10/20 12:12:56;;;;;;;4.90;4.40;;;;;;;13.22;71.29;101003.03;2887605;80;21085;-92
2022/10/20 12:17:05;;;;;;;5.17;4.30;;;;;;;13.27;71.40;101002.16;2932194;78;21581;-92
2022/10/20 12:21:10;;;;;;;4.90;3.50;;;;;;;13.32;71.90;100994.25;2999085;77;21058;-91
2022/10/20 12:25:28;;;;;;;4.03;3.55;;;;;;;13.34;73.15;100986.95;2952012;78;21605;-92
2022/10/20 12:29:35;;;;;;;4.58;3.05;;;;;;;13.37;71.65;100983.55;2998795;78;21439;-93
2022/10/20 12:33:50;;;;;;;5.83;2.77;;;;;;;13.42;70.16;100977.83;2986368;77;21038;-92
2022/10/20 12:38:00;;;;;;;5.58;2.45;;;;;;;13.38;67.31;100971.05;2992316;78;21680;-91
2022/10/20 12:42:04;;;;;;;4.37;3.42;;;;;;;13.43;71.35;100970.20;3009387;78;21097;-91
2022/10/20 12:46:10;;;;;;;3.77;2.85;;;;;;;13.47;69.25;100966.30;2974087;79;21387;-92
2022/10/20 12:50:34;;;;;;;3.45;2.77;;;;;;;13.30;69.57;100952.98;2985074;79;21042;-90
2022/10/20 12:54:39;;;;;;;4.33;3.92;;;;;;;13.38;67.85;100944.33;2975370;78;21034;-92
2022/10/20 12:59:24;;;;;;;4.92;3.55;;;;;;;13.44;69.88;100945.17;3004419;79;21023;-92
2022/10/20 13:03:41;;;;;;;8.83;3.98;;;;;;;13.49;70.33;100934.11;2955232;79;21025;-92
2022/10/20 13:07:51;;;;;;;8.48;4.85;;;;;;;13.55;71.21;100926.39;3003203;77;21081;-91
2022/10/20 13:11:58;;;;;;;6.25;3.98;;;;;;;13.58;69.46;100921.29;3010199;77;21681;-92
2022/10/20 13:16:01;;;;;;;7.15;3.77;;;;;;;13.49;68.48;100911.39;2978301;77;20987;-91
2022/10/20 13:20:08;;;;;;;6.33;3.87;;;;;;;13.66;69.55;100923.31;3009327;77;21030;-90
2022/10/20 13:24:26;;;;;;;8.25;5.05;;;;;;;13.61;66.33;100909.00;3026839;77;20990;-91
2022/10/20 13:28:30;;;;;;;8.30;4.85;;;;;;;13.65;68.51;100909.59;3025092;77;20979;-90
2022/10/20 13:32:49;;;;;;;7.10;3.62;;;;;;;13.66;69.59;100907.27;3029437;77;21529;-90
2022/10/20 13:37:08;;;;;;;13.08;9.45;;;;;;;13.71;69.63;100896.55;2943404;78;21109;-92
2022/10/20 13:41:41;;;;;;;8.98;5.40;;;;;;;13.67;66.70;100898.27;2970741;78;21034;-92
2022/10/20 13:46:15;;;;;;;8.43;7.35;;;;;;;13.66;66.76;100900.59;3041926;77;20995;-89
2022/10/20 13:50:33;;;;;;;4.75;4.10;;;;;;;13.66;67.55;100885.89;2976631;78;21049;-93
2022/10/20 13:54:37;;;;;;;8.65;7.85;;;;;;;13.59;67.02;100890.91;2971133;78;20944;-91
2022/10/20 13:58:39;;;;;;;11.10;6.50;;;;;;;13.64;67.94;100881.16;2953737;79;21513;-93
2022/10/20 14:02:40;;;;;;;8.28;5.12;;;;;;;13.70;68.62;100873.95;2918930;81;21047;-92
2022/10/20 14:06:41;;;;;;;9.03;8.13;;;;;;;13.70;68.79;100864.59;2910975;79;21046;-90
2022/10/20 14:10:59;;;;;;;5.55;5.05;;;;;;;13.75;68.51;100862.36;2939267;79;21018;-91
2022/10/20 14:15:03;;;;;;;7.30;5.58;;;;;;;13.80;68.67;100869.52;2928910;79;21058;-90
2022/10/20 14:19:12;;;;;;;18.12;10.35;;;;;;;13.77;68.60;100866.25;2949607;78;21037;-89
2022/10/20 14:23:13;;;;;;;12.43;9.35;;;;;;;13.72;69.09;100861.30;2988376;78;21026;-91
2022/10/20 14:27:29;;;;;;;15.90;9.53;;;;;;;13.64;68.08;100857.11;2988528;77;21483;-91
2022/10/20 14:31:30;;;;;;;;;;;;;;;13.56;67.70;100873.80;3018323;78;21010;-89
2022/10/20 14:35:43;;;;;;;19.27;12.47;;;;;;;13.48;69.43;100868.27;2986216;78;20115;-90
2022/10/20 14:39:48;;;;;;;12.30;9.18;;;;;;;13.46;69.12;100867.05;3003839;78;21022;-90
2022/10/20 14:43:55;;;;;;;15.95;10.90;;;;;;;13.43;69.63;100855.30;2957465;78;21146;-88
2022/10/20 14:47:59;;;;;;;11.12;7.05;;;;;;;13.36;69.41;100849.59;2942427;80;20999;-92
2022/10/20 14:52:03;;;;;;;8.10;6.75;;;;;;;13.25;68.53;100851.84;2954760;80;21075;-92
2022/10/20 14:56:10;;;;;;;11.65;7.65;;;;;;;13.14;68.09;100843.39;2943306;80;21035;-91
2022/10/20 15:00:29;;;;;;;9.30;7.15;;;;;;;13.09;68.71;100840.74;2965239;80;21033;-91
2022/10/20 15:04:31;;;;;;;11.63;7.30;;;;;;;12.95;68.11;100832.05;2957585;80;21040;-91
2022/10/20 15:08:32;;;;;;;10.13;8.25;;;;;;;12.88;68.72;100825.54;2952672;79;20996;-91
2022/10/20 15:12:44;;;;;;;9.00;8.10;;;;;;;12.67;69.39;100823.67;2907243;80;21139;-92
2022/10/20 15:16:47;;;;;;;10.55;8.10;;;;;;;12.52;70.68;100816.92;2971210;79;21032;-91
2022/10/20 15:20:51;;;;;;;11.20;8.23;;;;;;;12.41;70.62;100821.80;2941274;79;20996;-91
2022/10/20 15:24:52;;;;;;;10.32;9.00;;;;;;;12.27;70.92;100817.09;2971339;79;21016;-89
2022/10/20 15:28:53;;;;;;;14.13;8.03;;;;;;;12.19;71.87;100822.20;2957676;79;21042;-91
2022/10/20 15:32:54;;;;;;;8.98;7.90;;;;;;;12.00;72.86;100814.81;3028164;77;21552;-89
2022/10/20 15:36:56;;;;;;;13.68;9.93;;;;;;;11.87;73.29;100810.91;2958492;79;21022;-89
2022/10/20 15:41:00;;;;;;;15.45;8.65;;;;;;;11.78;74.57;100804.98;2983119;78;20971;-91
2022/10/20 15:45:01;;;;;;;10.82;8.08;;;;;;;11.64;74.87;100804.25;2969683;78;21355;-90
2022/10/20 15:49:03;;;;;;;15.58;8.53;;;;;;;11.53;75.62;100807.75;2972823;79;21055;-89
2022/10/20 15:53:04;;;;;;;19.02;10.28;;;;;;;11.39;76.67;100800.84;2962885;78;21066;-91
2022/10/20 15:57:05;;;;;;;14.65;9.78;;;;;;;11.28;77.08;100798.14;2902185;80;20992;-90
2022/10/20 16:01:08;;;;;;;14.90;9.38;;;;;;;11.19;77.81;100797.03;2969866;79;21453;-92
2022/10/20 16:05:09;;;;;;;11.40;8.55;;;;;;;11.05;77.46;100803.41;2943363;80;21527;-91
2022/10/20 16:09:10;;;;;;;12.13;9.13;;;;;;;10.95;76.69;100788.61;2967912;79;21582;-90
2022/10/20 16:13:11;;;;;;;12.53;8.45;;;;;;;10.91;76.58;100800.96;2955113;80;21055;-90
2022/10/20 16:17:12;;;;;;;11.85;8.95;;;;;;;10.84;75.98;100796.08;2926922;79;21034;-91
2022/10/20 16:21:13;;;;;;;16.93;10.55;;;;;;;10.75;76.20;100792.79;2955209;78;21014;-91
2022/10/20 16:41:01;;;;;;;17.75;12.90;;;;;;;9.85;79.84;100800.54;2947007;79;21069;-86
2022/10/20 16:45:04;;;;;;;25.70;16.93;;;;;;;9.80;80.09;100805.34;2902733;80;22262;-86
2022/10/20 16:49:06;;;;;;;22.07;15.15;;;;;;;9.72;80.21;100803.22;2941247;78;21592;-86
2022/10/20 16:53:07;;;;;;;25.77;15.90;;;;;;;9.71;79.74;100804.17;2894955;78;21572;-85
2022/10/20 16:57:10;;;;;;;36.48;22.73;;;;;;;9.64;80.77;100808.23;2965352;78;21089;-86
2022/10/20 17:01:13;;;;;;;38.08;22.55;;;;;;;9.55;81.29;100803.91;2936697;78;21038;-85
2022/10/20 17:05:16;;;;;;;39.27;21.45;;;;;;;9.50;81.65;100794.55;2961596;78;20998;-85
2022/10/20 17:09:17;;;;;;;43.52;23.25;;;;;;;9.46;81.81;100793.94;2967220;76;21062;-85
2022/10/20 17:13:18;;;;;;;39.30;20.95;;;;;;;9.45;81.62;100781.62;2859394;78;20996;-84
2022/10/20 17:17:19;;;;;;;32.20;19.82;;;;;;;9.38;81.78;100771.03;2917280;78;20967;-85
2022/10/20 17:21:20;;;;;;;34.15;19.75;;;;;;;9.40;81.63;100763.80;2879192;78;21105;-85
2022/10/20 17:25:21;;;;;;;30.92;20.80;;;;;;;9.43;81.67;100776.86;2867933;79;21034;-84
2022/10/20 17:29:22;;;;;;;29.35;19.55;;;;;;;9.42;82.01;100774.70;2941309;79;21060;-83
2022/10/20 17:33:28;;;;;;;33.88;19.32;;;;;;;9.42;82.18;100765.41;2965853;78;20998;-83
2022/10/20 17:37:30;;;;;;;28.50;17.82;;;;;;;9.43;82.73;100755.63;2953584;78;21093;-83
2022/10/20 17:41:32;;;;;;;23.18;17.67;;;;;;;9.38;82.84;100755.09;2954563;77;21129;-84
2022/10/20 17:45:33;;;;;;;40.20;23.55;;;;;;;9.36;83.79;100754.36;2944772;78;21030;-84
2022/10/20 17:49:34;;;;;;;29.52;20.27;;;;;;;9.26;84.77;100748.84;2957878;78;21073;-84
2022/10/20 17:53:39;;;;;;;25.35;17.82;;;;;;;9.19;85.68;100747.08;2998468;77;21625;-83
2022/10/20 17:57:40;;;;;;;21.50;15.30;;;;;;;9.08;86.52;100733.22;2971475;78;21007;-83
2022/10/20 18:01:41;;;;;;;29.63;20.27;;;;;;;9.08;87.01;100724.42;2971962;78;21052;-83
2022/10/20 18:05:42;;;;;;;29.52;24.18;;;;;;;9.04;87.46;100721.59;2974222;77;21058;-83
2022/10/20 18:09:43;;;;;;;32.80;23.32;;;;;;;9.04;86.98;100726.89;2941267;78;21147;-83
2022/10/20 18:13:45;;;;;;;31.75;21.15;;;;;;;8.98;87.83;100719.73;2939980;78;21078;-83
2022/10/20 18:17:46;;;;;;;30.43;20.68;;;;;;;8.86;88.66;100716.61;2937465;79;21074;-83
2022/10/20 18:21:47;;;;;;;36.33;24.45;;;;;;;8.76;89.29;100719.03;2931485;79;21011;-83
2022/10/20 18:25:48;;;;;;;30.25;19.73;;;;;;;8.66;89.65;100715.28;2933791;78;21095;-83
2022/10/20 18:29:50;;;;;;;32.50;23.45;;;;;;;8.63;90.36;100711.02;2994900;78;21016;-83
2022/10/20 18:34:01;;;;;;;33.92;22.77;;;;;;;8.57;90.76;100718.94;2997636;77;20983;-83
2022/10/20 18:38:03;;;;;;;36.95;23.02;;;;;;;8.61;90.14;100712.94;2872660;78;21070;-83
2022/10/20 18:42:04;;;;;;;33.33;21.95;;;;;;;8.65;89.54;100701.66;2936385;79;21014;-83
2022/10/20 18:46:08;;;;;;;44.45;27.75;;;;;;;8.63;89.74;100699.09;2938680;78;21462;-83
2022/10/20 18:50:10;;;;;;;55.85;32.73;;;;;;;8.64;89.70;100691.50;2956064;78;21010;-83
2022/10/20 18:54:12;;;;;;;39.78;26.85;;;;;;;8.56;90.61;100686.75;2959498;78;21011;-83
2022/10/20 18:58:13;;;;;;;39.30;21.75;;;;;;;8.36;92.18;100682.73;2950054;78;21065;-83
2022/10/20 19:02:14;;;;;;;38.95;28.73;;;;;;;8.09;94.21;100680.95;2882922;78;21059;-83
2022/10/20 19:06:20;;;;;;;46.48;29.10;;;;;;;8.11;94.24;100675.53;2928232;78;21039;-83
2022/10/20 19:10:21;;;;;;;43.65;28.27;;;;;;;8.09;94.57;100678.77;2915448;78;21620;-83
2022/10/20 19:14:23;;;;;;;51.15;30.52;;;;;;;8.02;94.60;100681.45;2930918;79;21058;-83